createdAt,value
2023-02-03T00:02:17.848Z,5.30
2023-02-03T00:04:53.575Z,6.10
2023-02-03T00:07:28.434Z,5.60
2023-02-03T00:10:04.679Z,6.53
2023-02-03T00:12:40.894Z,5.43
2023-02-03T00:15:17.000Z,5.00
2023-02-03T00:17:52.115Z,4.43
2023-02-03T00:20:28.186Z,4.07
2023-02-03T00:23:07.161Z,3.70
2023-02-03T00:25:42.293Z,3.50
2023-02-03T00:28:17.667Z,4.40
2023-02-03T00:30:54.721Z,3.50
2023-02-03T00:33:31.337Z,3.90
2023-02-03T00:36:09.965Z,4.27
2023-02-03T00:38:44.662Z,3.17
2023-02-03T00:41:18.060Z,3.60
2023-02-03T00:43:52.481Z,3.50
2023-02-03T00:46:26.542Z,2.90
2023-02-03T00:49:03.133Z,4.00
2023-02-03T00:51:38.800Z,3.30
2023-02-03T00:54:12.171Z,3.87
2023-02-03T00:56:46.326Z,4.20
2023-02-03T00:59:22.950Z,4.63
2023-02-03T01:01:58.434Z,3.57
2023-02-03T01:04:36.369Z,3.47
2023-02-03T01:07:11.284Z,4.13
2023-02-03T01:09:46.240Z,4.30
2023-02-03T01:12:20.091Z,3.77
2023-02-03T01:14:54.855Z,3.60
2023-02-03T01:17:31.774Z,4.10
2023-02-03T01:20:12.769Z,4.17
2023-02-03T01:22:46.349Z,4.20
2023-02-03T01:25:20.045Z,4.33
2023-02-03T01:27:54.368Z,3.77
2023-02-03T01:30:28.778Z,3.33
2023-02-03T01:33:03.128Z,4.13
2023-02-03T01:35:38.100Z,4.30
2023-02-03T01:38:15.021Z,3.93
2023-02-03T01:40:48.567Z,4.17
2023-02-03T01:43:32.374Z,4.80
2023-02-03T01:46:09.179Z,4.67
2023-02-03T01:48:43.019Z,3.60
2023-02-03T01:51:19.027Z,4.40
2023-02-03T01:53:53.803Z,4.20
2023-02-03T01:56:29.600Z,4.47
2023-02-03T01:59:03.654Z,3.93
2023-02-03T02:01:38.832Z,5.03
2023-02-03T02:04:13.666Z,4.67
2023-02-03T02:06:50.157Z,4.23
2023-02-03T02:09:24.541Z,4.20
2023-02-03T02:11:58.787Z,4.30
2023-02-03T02:14:35.237Z,4.60
2023-02-03T02:17:15.765Z,4.57
2023-02-03T02:20:09.440Z,4.30
2023-02-03T02:22:54.571Z,4.37
2023-02-03T02:25:56.461Z,4.30
2023-02-03T02:28:52.667Z,4.43
2023-02-03T02:31:56.491Z,4.53
2023-02-03T02:34:39.641Z,4.30
2023-02-03T02:37:18.565Z,4.20
2023-02-03T02:40:04.952Z,4.80
2023-02-03T02:42:42.281Z,4.10
2023-02-03T02:45:20.072Z,4.43
2023-02-03T02:47:54.689Z,4.00
2023-02-03T02:50:32.230Z,3.73
2023-02-03T02:53:07.308Z,4.17
2023-02-03T02:55:44.039Z,4.27
2023-02-03T02:58:19.099Z,4.47
2023-02-03T03:00:54.076Z,4.03
2023-02-03T03:03:28.107Z,4.20
2023-02-03T03:06:05.440Z,4.23
2023-02-03T03:08:42.944Z,4.33
2023-02-03T03:11:16.947Z,4.70
2023-02-03T03:13:58.672Z,3.70
2023-02-03T03:16:36.905Z,4.40
2023-02-03T03:19:11.927Z,3.90
2023-02-03T03:21:49.780Z,4.33
2023-02-03T03:24:30.221Z,3.60
2023-02-03T03:27:08.697Z,3.57
2023-02-03T03:29:46.964Z,3.70
2023-02-03T03:32:21.221Z,3.57
2023-02-03T03:34:55.949Z,3.50
2023-02-03T03:37:36.609Z,3.70
2023-02-03T03:40:15.239Z,3.03
2023-02-03T03:42:51.180Z,3.30
2023-02-03T03:45:29.565Z,3.33
2023-02-03T03:48:07.256Z,2.90
2023-02-03T03:50:44.335Z,3.37
2023-02-03T03:53:21.916Z,3.67
2023-02-03T03:55:58.654Z,3.33
2023-02-03T03:58:33.736Z,3.13
2023-02-03T04:01:12.281Z,2.80
2023-02-03T04:03:49.168Z,3.07
2023-02-03T04:06:24.853Z,2.87
2023-02-03T04:09:01.097Z,2.73
2023-02-03T04:11:53.564Z,2.80
2023-02-03T04:14:30.458Z,2.93
2023-02-03T04:17:05.778Z,3.03
2023-02-03T04:19:50.160Z,3.57
2023-02-03T04:22:26.431Z,3.87
2023-02-03T04:25:02.823Z,4.40
2023-02-03T04:27:43.377Z,3.27
2023-02-03T04:30:21.939Z,4.37
2023-02-03T04:32:56.719Z,4.30
2023-02-03T04:35:30.705Z,5.00
2023-02-03T04:38:08.839Z,5.37
2023-02-03T04:41:00.872Z,6.13
2023-02-03T04:43:41.017Z,5.87
2023-02-03T04:46:16.486Z,6.27
2023-02-03T04:48:55.221Z,6.30
2023-02-03T04:51:30.590Z,6.40
2023-02-03T04:54:03.922Z,6.73
2023-02-03T04:56:37.989Z,7.53
2023-02-03T04:59:15.653Z,6.87
2023-02-03T05:01:50.891Z,7.80
2023-02-03T05:04:27.850Z,7.33
2023-02-03T05:07:02.094Z,7.90
2023-02-03T05:09:36.504Z,8.17
2023-02-03T05:12:11.045Z,7.30
2023-02-03T05:14:47.435Z,8.60
2023-02-03T05:17:21.413Z,9.57
2023-02-03T05:20:10.051Z,10.23
2023-02-03T05:22:45.122Z,10.17
2023-02-03T05:25:19.279Z,11.67
2023-02-03T05:27:54.000Z,10.37
2023-02-03T05:30:32.883Z,11.67
2023-02-03T05:33:08.054Z,11.83
2023-02-03T05:35:43.742Z,11.73
2023-02-03T05:38:19.146Z,12.33
2023-02-03T05:41:11.432Z,11.97
2023-02-03T05:43:46.191Z,9.73
2023-02-03T05:46:25.118Z,13.13
2023-02-03T05:49:00.140Z,13.27
2023-02-03T05:51:35.482Z,13.80
2023-02-03T05:54:11.319Z,14.63
2023-02-03T05:56:45.329Z,15.13
2023-02-03T05:59:28.559Z,12.83
2023-02-03T06:02:03.916Z,15.93
2023-02-03T06:04:37.236Z,13.57
2023-02-03T06:07:10.530Z,14.77
2023-02-03T06:09:44.090Z,15.33
2023-02-03T06:12:20.852Z,14.53
2023-02-03T06:14:55.910Z,14.47
2023-02-03T06:17:31.788Z,14.87
2023-02-03T06:20:07.165Z,15.03
2023-02-03T06:22:50.544Z,14.60
2023-02-03T06:25:28.239Z,11.23
2023-02-03T06:28:03.428Z,13.37
2023-02-03T06:30:41.791Z,13.37
2023-02-03T06:33:19.872Z,14.70
2023-02-03T06:35:53.440Z,14.77
2023-02-03T06:38:28.100Z,13.17
2023-02-03T06:41:01.814Z,14.33
2023-02-03T06:43:36.167Z,9.40
2023-02-03T06:46:29.122Z,14.10
2023-02-03T06:49:06.964Z,14.00
2023-02-03T06:51:44.839Z,13.30
2023-02-03T06:54:20.328Z,14.47
2023-02-03T06:56:56.245Z,11.73
2023-02-03T06:59:32.106Z,13.90
2023-02-03T07:02:10.035Z,12.53
2023-02-03T07:04:47.874Z,11.40
2023-02-03T07:07:24.436Z,14.80
2023-02-03T07:10:06.411Z,12.83
2023-02-03T07:12:54.338Z,14.07
2023-02-03T07:15:35.434Z,10.43
2023-02-03T07:18:11.694Z,12.73
2023-02-03T07:20:50.211Z,13.13
2023-02-03T07:23:24.094Z,12.47
2023-02-03T07:26:01.608Z,12.87
2023-02-03T07:28:39.315Z,12.63
2023-02-03T07:31:20.468Z,12.27
2023-02-03T07:33:57.233Z,12.37
2023-02-03T07:36:34.761Z,10.77
2023-02-03T07:39:13.084Z,9.93
2023-02-03T07:41:47.839Z,10.83
2023-02-03T07:44:22.604Z,11.87
2023-02-03T07:47:03.493Z,11.07
2023-02-03T07:49:38.229Z,10.33
2023-02-03T07:52:21.768Z,9.50
2023-02-03T07:54:59.171Z,10.57
2023-02-03T07:57:36.697Z,8.47
2023-02-03T08:00:20.292Z,10.77
2023-02-03T08:02:56.863Z,9.10
2023-02-03T08:05:30.947Z,10.17
2023-02-03T08:08:08.025Z,10.77
2023-02-03T08:10:43.693Z,9.30
2023-02-03T08:13:22.138Z,8.47
2023-02-03T08:16:36.130Z,9.17
2023-02-03T08:19:15.514Z,6.90
2023-02-03T08:22:17.974Z,6.17
2023-02-03T08:25:11.412Z,8.40
2023-02-03T08:27:51.852Z,7.77
2023-02-03T08:30:57.068Z,9.33
2023-02-03T08:33:31.084Z,7.03
2023-02-03T08:36:05.970Z,7.03
2023-02-03T08:38:42.938Z,7.83
2023-02-03T08:41:27.281Z,7.47
2023-02-03T08:44:02.155Z,7.67
2023-02-03T08:46:46.898Z,7.33
2023-02-03T08:49:22.250Z,6.00
2023-02-03T08:51:59.550Z,6.33
2023-02-03T08:54:38.073Z,7.73
2023-02-03T08:57:17.921Z,4.67
2023-02-03T09:00:00.410Z,6.93
2023-02-03T09:02:51.538Z,5.03
2023-02-03T09:05:25.323Z,4.53
2023-02-03T09:07:59.211Z,5.33
2023-02-03T09:10:35.473Z,5.00
2023-02-03T09:13:13.620Z,5.47
2023-02-03T09:15:47.209Z,6.17
2023-02-03T09:18:34.303Z,4.80
2023-02-03T09:21:12.147Z,5.00
2023-02-03T09:23:55.316Z,4.20
2023-02-03T09:26:34.994Z,4.73
2023-02-03T09:29:16.850Z,4.07
2023-02-03T09:31:55.460Z,3.43
2023-02-03T09:34:29.639Z,4.57
2023-02-03T09:37:08.097Z,4.13
2023-02-03T09:39:44.085Z,4.53
2023-02-03T09:42:38.765Z,4.57
2023-02-03T09:45:22.415Z,4.73
2023-02-03T09:47:58.247Z,2.93
2023-02-03T09:50:35.267Z,4.70
2023-02-03T09:53:09.777Z,4.03
2023-02-03T09:55:43.614Z,4.03
2023-02-03T09:58:23.036Z,4.03
2023-02-03T10:01:03.681Z,4.00
2023-02-03T10:03:55.231Z,4.10
2023-02-03T10:06:35.057Z,2.40
2023-02-03T10:09:24.605Z,2.83
2023-02-03T10:12:20.877Z,3.13
2023-02-03T10:15:07.376Z,2.43
2023-02-03T10:17:44.855Z,3.17
2023-02-03T10:20:27.681Z,3.27
2023-02-03T10:23:08.738Z,2.17
2023-02-03T10:25:58.031Z,3.17
2023-02-03T10:28:32.237Z,2.40
2023-02-03T10:31:10.163Z,2.73
2023-02-03T10:33:46.393Z,2.73
2023-02-03T10:36:27.687Z,2.50
2023-02-03T10:39:12.643Z,2.50
2023-02-03T10:41:48.481Z,2.03
2023-02-03T10:44:22.393Z,1.77
2023-02-03T10:47:00.313Z,1.30
2023-02-03T10:49:38.813Z,1.57
2023-02-03T10:52:27.265Z,1.20
2023-02-03T10:55:07.162Z,1.50
2023-02-03T10:57:45.038Z,1.20
2023-02-03T11:00:26.443Z,2.33
2023-02-03T11:03:05.417Z,2.57
2023-02-03T11:05:43.429Z,1.53
2023-02-03T11:08:22.989Z,1.63
2023-02-03T11:11:03.336Z,2.57
2023-02-03T11:13:37.391Z,2.00
2023-02-03T11:16:25.093Z,2.20
2023-02-03T11:19:02.502Z,2.27
2023-02-03T11:21:44.782Z,2.03
2023-02-03T11:24:37.865Z,1.97
2023-02-03T11:27:32.949Z,2.30
2023-02-03T11:30:20.147Z,2.20
2023-02-03T11:33:22.140Z,2.10
2023-02-03T11:35:58.224Z,2.20
2023-02-03T11:38:39.117Z,3.10
2023-02-03T11:41:26.485Z,3.07
2023-02-03T11:44:02.378Z,2.43
2023-02-03T11:46:42.119Z,2.10
2023-02-03T11:49:24.271Z,2.30
2023-02-03T11:52:07.314Z,3.50
2023-02-03T11:54:49.616Z,3.13
2023-02-03T11:57:30.824Z,3.37
2023-02-03T12:00:11.039Z,2.57
2023-02-03T12:03:05.306Z,2.73
2023-02-03T12:05:58.386Z,3.60
2023-02-03T12:08:46.255Z,3.40
2023-02-03T12:11:28.862Z,3.10
2023-02-03T12:14:22.524Z,3.03
2023-02-03T12:17:13.414Z,2.67
2023-02-03T12:19:59.259Z,3.17
2023-02-03T12:22:51.612Z,4.03
2023-02-03T12:25:33.132Z,4.07
2023-02-03T12:28:23.746Z,4.57
2023-02-03T12:31:10.047Z,4.17
2023-02-03T12:33:45.399Z,3.17
2023-02-03T12:36:23.193Z,2.27
2023-02-03T12:39:00.252Z,4.13
2023-02-03T12:41:36.539Z,3.20
2023-02-03T12:51:05.107Z,4.10
2023-02-03T12:54:02.530Z,3.10
2023-02-03T12:56:48.217Z,2.47
2023-02-03T12:59:25.198Z,2.07
2023-02-03T13:02:20.767Z,1.60
2023-02-03T13:05:09.096Z,2.00
2023-02-03T13:07:59.166Z,2.30
2023-02-03T13:11:07.135Z,2.17
2023-02-03T13:13:53.035Z,2.10
2023-02-03T13:16:47.565Z,2.67
2023-02-03T13:22:54.319Z,1.90
2023-02-03T13:25:32.476Z,2.93
2023-02-03T13:28:14.317Z,2.23
2023-02-03T13:31:05.985Z,2.40
2023-02-03T13:33:56.239Z,2.37
2023-02-03T13:36:48.888Z,2.53
2023-02-03T13:39:30.199Z,3.10
2023-02-03T13:42:16.631Z,2.80
2023-02-03T13:44:53.522Z,3.20
2023-02-03T13:47:29.665Z,3.10
2023-02-03T13:50:11.106Z,2.80
2023-02-03T13:52:48.540Z,2.27
2023-02-03T13:55:31.580Z,3.87
2023-02-03T13:58:10.547Z,3.53
2023-02-03T14:01:09.046Z,2.80
2023-02-03T14:03:46.806Z,3.03
2023-02-03T14:06:39.154Z,3.23
2023-02-03T14:09:27.703Z,3.57
2023-02-03T14:12:37.809Z,2.87
2023-02-03T14:15:40.281Z,4.87
2023-02-03T14:18:28.576Z,5.87
2023-02-03T14:21:20.389Z,3.43
2023-02-03T14:24:04.816Z,4.23
2023-02-03T14:26:41.605Z,3.63
2023-02-03T14:29:26.079Z,2.83
2023-02-03T14:32:07.342Z,4.47
2023-02-03T14:34:41.865Z,3.83
2023-02-03T14:37:20.227Z,5.37
2023-02-03T14:40:27.997Z,4.83
2023-02-03T14:43:15.985Z,4.43
2023-02-03T14:46:23.695Z,5.50
2023-02-03T14:49:16.159Z,4.63
2023-02-03T14:52:03.488Z,4.70
2023-02-03T14:54:46.906Z,4.03
2023-02-03T14:57:29.931Z,3.83
2023-02-03T15:00:14.305Z,5.37
2023-02-03T15:03:08.387Z,3.13
2023-02-03T15:05:48.554Z,5.37
2023-02-03T15:08:40.668Z,5.30
2023-02-03T15:11:35.789Z,5.07
2023-02-03T15:14:20.000Z,4.80
2023-02-03T15:17:00.500Z,4.80
2023-02-03T15:19:37.024Z,3.17
2023-02-03T15:22:21.366Z,3.87
2023-02-03T15:25:02.509Z,3.40
2023-02-03T15:27:37.507Z,3.53
2023-02-03T15:30:39.227Z,4.00
2023-02-03T15:33:21.471Z,4.40
2023-02-03T15:35:59.581Z,4.53
2023-02-03T15:38:36.778Z,4.93
2023-02-03T15:41:13.085Z,3.53
2023-02-03T15:43:49.367Z,3.00
2023-02-03T15:46:27.123Z,4.23
2023-02-03T15:49:05.571Z,3.23
2023-02-03T15:51:44.417Z,2.43
2023-02-03T15:54:24.996Z,3.57
2023-02-03T15:57:02.414Z,3.80
2023-02-03T15:59:48.216Z,3.77
2023-02-03T16:02:29.026Z,3.63
2023-02-03T16:05:23.639Z,2.97
2023-02-03T16:08:15.481Z,3.03
2023-02-03T16:11:07.285Z,3.77
2023-02-03T16:13:53.983Z,3.87
2023-02-03T16:16:37.803Z,3.23
2023-02-03T16:19:20.256Z,3.50
2023-02-03T16:21:59.781Z,4.60
2023-02-03T16:24:54.056Z,3.10
2023-02-03T16:27:34.617Z,4.83
2023-02-03T16:30:50.704Z,3.77
2023-02-03T16:33:43.893Z,4.30
2023-02-03T16:36:39.553Z,2.50
2023-02-03T16:39:49.478Z,3.77
2023-02-03T16:42:44.598Z,4.50
2023-02-03T16:45:44.131Z,4.27
2023-02-03T16:48:34.740Z,4.60
2023-02-03T16:51:13.279Z,3.67
2023-02-03T16:53:48.480Z,3.03
2023-02-03T16:56:23.351Z,3.43
2023-02-03T16:58:56.952Z,2.93
2023-02-03T17:01:29.914Z,3.13
2023-02-03T17:04:03.968Z,4.30
2023-02-03T17:06:38.580Z,4.50
2023-02-03T17:09:13.429Z,4.77
2023-02-03T17:11:48.480Z,2.57
2023-02-03T17:14:23.856Z,3.80
2023-02-03T17:17:00.906Z,1.93
2023-02-03T17:19:34.542Z,5.23
2023-02-03T17:22:08.708Z,5.17
2023-02-03T17:24:41.778Z,5.20
2023-02-03T17:27:16.462Z,3.70
2023-02-03T17:29:50.029Z,5.50
2023-02-03T17:32:23.204Z,3.90
2023-02-03T17:34:56.789Z,4.43
2023-02-03T17:37:35.825Z,2.83
2023-02-03T17:54:27.829Z,3.37
2023-02-03T17:57:04.428Z,4.43
2023-02-03T17:59:39.665Z,3.83
2023-02-03T18:02:15.584Z,3.80
2023-02-03T18:04:49.079Z,3.97
2023-02-03T18:07:22.784Z,4.87
2023-02-03T18:09:56.353Z,4.20
2023-02-03T18:12:30.453Z,2.77
2023-02-03T18:15:05.896Z,3.87
2023-02-03T18:17:42.002Z,3.43
2023-02-03T18:20:18.737Z,3.63
2023-02-03T18:22:52.104Z,3.17
2023-02-03T18:25:28.540Z,5.43
2023-02-03T18:28:02.286Z,4.37
2023-02-03T18:30:45.406Z,3.80
2023-02-03T18:33:22.038Z,3.80
2023-02-03T18:36:00.192Z,5.03
2023-02-03T18:38:35.479Z,4.10
2023-02-03T18:41:09.511Z,3.70
2023-02-03T18:43:44.940Z,3.67
2023-02-03T18:46:20.629Z,3.87
2023-02-03T18:48:54.019Z,2.30
2023-02-03T18:51:27.954Z,3.07
2023-02-03T18:54:04.478Z,2.73
2023-02-03T18:56:38.210Z,3.37
2023-02-03T18:59:21.204Z,4.23
2023-02-03T19:01:55.645Z,2.13
2023-02-03T19:04:28.709Z,3.60
2023-02-03T19:07:07.318Z,3.13
2023-02-03T19:09:41.171Z,3.23
2023-02-03T19:12:14.137Z,3.70
2023-02-03T19:14:47.412Z,3.53
2023-02-03T19:17:23.830Z,4.03
2023-02-03T19:19:57.548Z,2.70
2023-02-03T19:22:31.107Z,3.03
2023-02-03T19:25:08.190Z,2.40
2023-02-03T19:27:47.494Z,3.20
2023-02-03T19:30:22.037Z,2.07
2023-02-03T19:32:58.299Z,2.17
2023-02-03T19:35:33.704Z,1.73
2023-02-03T19:38:07.515Z,2.87
2023-02-03T19:40:42.795Z,2.43
2023-02-03T19:43:16.118Z,2.17
2023-02-03T19:45:49.893Z,3.53
2023-02-03T19:48:25.389Z,1.60
2023-02-03T19:51:04.880Z,3.27
2023-02-03T19:53:38.492Z,2.10
2023-02-03T19:56:12.248Z,2.77
2023-02-03T19:58:53.653Z,2.40
2023-02-03T20:01:27.481Z,2.67
2023-02-03T20:04:05.334Z,2.50
2023-02-03T20:06:38.889Z,2.60
2023-02-03T20:09:14.870Z,3.30
2023-02-03T20:14:47.687Z,2.77
2023-02-03T20:17:33.327Z,2.27
2023-02-03T20:20:13.694Z,2.20
2023-02-03T20:22:52.923Z,1.73
2023-02-03T20:25:31.245Z,2.40
2023-02-03T20:28:07.966Z,2.27
2023-02-03T20:30:43.505Z,2.30
2023-02-03T20:33:17.893Z,1.50
2023-02-03T20:36:01.315Z,2.07
2023-02-03T20:38:34.734Z,2.17
2023-02-03T20:41:12.525Z,2.10
2023-02-03T20:43:45.882Z,1.60
2023-02-03T20:46:20.451Z,1.67
2023-02-03T20:48:53.343Z,1.43
2023-02-03T20:51:29.277Z,1.80
2023-02-03T20:54:02.617Z,1.80
2023-02-03T20:56:35.537Z,1.17
2023-02-03T20:59:12.419Z,1.60
2023-02-03T21:01:45.206Z,2.10
2023-02-03T21:04:36.672Z,2.00
2023-02-03T21:07:18.826Z,2.03
2023-02-03T21:09:52.012Z,2.20
2023-02-03T21:12:25.690Z,1.80
2023-02-03T21:15:02.138Z,1.50
2023-02-03T21:17:41.896Z,1.57
2023-02-03T21:20:23.328Z,1.67
2023-02-03T21:22:58.374Z,1.50
2023-02-03T21:25:39.497Z,1.47
2023-02-03T21:28:21.392Z,1.50
2023-02-03T21:30:54.748Z,1.60
2023-02-03T21:33:30.808Z,1.27
2023-02-03T21:36:04.944Z,1.63
2023-02-03T21:38:43.009Z,1.30
2023-02-03T21:41:18.157Z,1.40
2023-02-03T21:43:52.461Z,1.20
2023-02-03T21:46:28.102Z,1.10
2023-02-03T21:49:12.056Z,1.30
2023-02-03T21:51:51.319Z,1.37
2023-02-03T21:54:30.466Z,1.20
2023-02-03T21:57:06.813Z,1.63
2023-02-03T21:59:46.942Z,1.60
2023-02-03T22:02:45.932Z,1.30
2023-02-03T22:05:21.197Z,2.13
2023-02-03T22:07:54.828Z,1.70
2023-02-03T22:10:32.228Z,1.37
2023-02-03T22:13:05.342Z,1.47
2023-02-03T22:15:38.179Z,1.20
2023-02-03T22:18:12.169Z,1.50
2023-02-03T22:20:45.126Z,1.40
2023-02-03T22:23:20.472Z,1.10
2023-02-03T22:25:59.212Z,1.53
2023-02-03T22:28:32.153Z,1.30
2023-02-03T22:31:16.131Z,1.30
2023-02-03T22:33:49.969Z,1.80
2023-02-03T22:36:23.627Z,1.37
2023-02-03T22:38:56.718Z,1.63
2023-02-03T22:41:33.416Z,1.37
2023-02-03T22:44:06.782Z,1.73
2023-02-03T22:46:42.076Z,1.80
2023-02-03T22:49:15.828Z,1.60
2023-02-03T22:51:49.111Z,1.57
2023-02-03T22:54:22.654Z,1.47
2023-02-03T22:56:57.776Z,1.80
2023-02-03T22:59:30.886Z,1.40
2023-02-03T23:02:06.716Z,1.60
2023-02-03T23:04:40.946Z,1.13
2023-02-03T23:07:17.294Z,1.50
2023-02-03T23:09:53.069Z,1.50
2023-02-03T23:12:32.680Z,1.60
2023-02-03T23:15:06.152Z,1.43
2023-02-03T23:17:39.120Z,1.87
2023-02-03T23:20:15.743Z,2.00
2023-02-03T23:22:50.898Z,1.70
2023-02-03T23:25:26.121Z,1.50
2023-02-03T23:28:10.059Z,1.83
2023-02-03T23:30:43.163Z,1.70
2023-02-03T23:33:16.307Z,2.00
2023-02-03T23:35:49.544Z,1.83
2023-02-03T23:38:23.071Z,1.70
2023-02-03T23:40:56.466Z,2.20
2023-02-03T23:43:33.680Z,1.80
2023-02-03T23:46:08.780Z,1.90
2023-02-03T23:48:42.025Z,2.03
2023-02-03T23:51:15.347Z,1.70
2023-02-03T23:53:51.536Z,1.90
2023-02-03T23:56:26.863Z,2.13
2023-02-03T23:59:01.720Z,1.83
